createdAt,value
2019-05-03T00:00:04.219Z,99.90
2019-05-03T00:02:53.694Z,99.90
2019-05-03T00:05:36.515Z,99.90
2019-05-03T00:08:09.469Z,99.90
2019-05-03T00:10:39.906Z,99.90
2019-05-03T00:13:12.540Z,99.90
2019-05-03T00:16:02.570Z,99.90
2019-05-03T00:18:32.744Z,99.90
2019-05-03T00:21:02.776Z,99.90
2019-05-03T00:23:32.648Z,99.90
2019-05-03T00:26:02.771Z,99.90
2019-05-03T00:28:33.623Z,99.90
2019-05-03T00:31:03.498Z,99.90
2019-05-03T00:33:33.696Z,99.90
2019-05-03T00:36:22.348Z,99.90
2019-05-03T00:38:54.868Z,99.90
2019-05-03T00:41:24.738Z,99.90
2019-05-03T00:43:54.526Z,99.90
2019-05-03T00:46:24.272Z,99.90
2019-05-03T00:48:54.119Z,99.90
2019-05-03T00:51:24.008Z,99.90
2019-05-03T00:53:53.813Z,99.90
2019-05-03T00:56:23.528Z,99.90
2019-05-03T00:58:56.656Z,99.90
2019-05-03T01:01:26.472Z,99.90
2019-05-03T01:03:56.366Z,99.90
2019-05-03T01:06:26.229Z,99.90
2019-05-03T01:08:56.056Z,99.90
2019-05-03T01:11:25.852Z,99.90
2019-05-03T01:13:55.660Z,99.90
2019-05-03T01:16:26.146Z,99.90
2019-05-03T01:18:56.048Z,99.90
2019-05-03T01:21:25.784Z,99.90
2019-05-03T01:23:55.573Z,99.90
2019-05-03T01:26:25.436Z,99.90
2019-05-03T01:28:55.337Z,99.90
2019-05-03T01:31:25.215Z,99.90
2019-05-03T01:33:55.007Z,99.90
2019-05-03T01:36:24.812Z,99.90
2019-05-03T01:38:54.604Z,99.90
2019-05-03T01:41:24.493Z,99.90
2019-05-03T01:43:54.212Z,99.90
2019-05-03T01:46:23.972Z,99.90
2019-05-03T01:49:16.020Z,99.90
2019-05-03T01:52:03.324Z,99.90
2019-05-03T01:54:33.300Z,99.90
2019-05-03T01:57:03.221Z,99.90
2019-05-03T01:59:33.080Z,99.90
2019-05-03T02:02:20.249Z,99.90
2019-05-03T02:05:07.948Z,99.90
2019-05-03T02:07:37.912Z,99.90
2019-05-03T02:10:08.197Z,99.90
2019-05-03T02:12:38.137Z,99.90
2019-05-03T02:15:08.291Z,99.90
2019-05-03T02:17:38.091Z,99.90
2019-05-03T02:20:08.304Z,99.90
2019-05-03T02:22:38.024Z,99.90
2019-05-03T02:25:08.199Z,99.90
2019-05-03T02:27:37.996Z,99.90
2019-05-03T02:30:07.863Z,99.90
2019-05-03T02:32:37.685Z,99.90
2019-05-03T02:35:07.616Z,99.90
2019-05-03T02:37:38.978Z,99.90
2019-05-03T02:40:12.988Z,99.90
2019-05-03T02:42:46.374Z,99.90
2019-05-03T02:45:25.788Z,99.90
2019-05-03T02:48:08.506Z,99.90
2019-05-03T02:50:38.379Z,99.90
2019-05-03T02:53:08.362Z,99.90
2019-05-03T02:55:38.170Z,99.90
2019-05-03T02:58:07.994Z,99.90
2019-05-03T03:01:06.717Z,99.90
2019-05-03T03:03:37.500Z,99.90
2019-05-03T03:06:07.438Z,99.90
2019-05-03T03:08:38.941Z,99.90
2019-05-03T03:11:09.491Z,99.90
2019-05-03T03:13:39.855Z,99.90
2019-05-03T03:16:10.689Z,99.90
2019-05-03T03:18:41.352Z,99.90
2019-05-03T03:21:16.232Z,99.90
2019-05-03T03:24:05.854Z,99.90
2019-05-03T03:26:41.601Z,99.90
2019-05-03T03:29:10.748Z,99.90
2019-05-03T03:32:09.296Z,99.90
2019-05-03T03:34:47.650Z,99.90
2019-05-03T03:37:15.157Z,99.90
2019-05-03T03:39:45.779Z,99.90
2019-05-03T03:42:19.076Z,99.90
2019-05-03T03:44:49.450Z,99.90
2019-05-03T03:47:20.435Z,99.90
2019-05-03T03:49:51.833Z,99.90
2019-05-03T03:52:22.356Z,99.90
2019-05-03T03:54:55.525Z,99.90
2019-05-03T03:57:27.478Z,99.90
2019-05-03T03:59:58.244Z,99.90
2019-05-03T04:02:28.139Z,99.90
2019-05-03T04:04:58.677Z,99.90
2019-05-03T04:07:29.669Z,99.90
2019-05-03T04:10:00.034Z,99.90
2019-05-03T04:12:29.902Z,99.90
2019-05-03T04:15:06.589Z,99.90
2019-05-03T04:18:00.649Z,99.90
2019-05-03T04:20:36.067Z,99.90
2019-05-03T04:23:05.922Z,99.90
2019-05-03T04:25:36.446Z,99.90
2019-05-03T04:28:06.394Z,99.90
2019-05-03T04:30:36.724Z,99.90
2019-05-03T04:33:06.838Z,99.90
2019-05-03T04:35:36.836Z,99.90
2019-05-03T04:38:06.833Z,99.90
2019-05-03T04:40:37.745Z,99.90
2019-05-03T04:43:07.543Z,99.90
2019-05-03T04:45:37.356Z,99.90
2019-05-03T04:48:07.264Z,99.90
2019-05-03T04:50:37.234Z,99.90
2019-05-03T04:53:07.093Z,99.90
2019-05-03T04:55:36.886Z,99.90
2019-05-03T04:58:06.757Z,99.90
2019-05-03T05:00:36.509Z,99.90
2019-05-03T05:03:06.358Z,99.90
2019-05-03T05:05:36.528Z,99.90
2019-05-03T05:08:06.640Z,99.90
2019-05-03T05:10:36.550Z,99.90
2019-05-03T05:13:06.538Z,99.90
2019-05-03T05:15:36.321Z,99.90
2019-05-03T05:18:11.592Z,99.90
2019-05-03T05:21:07.754Z,99.90
2019-05-03T05:23:40.990Z,99.90
2019-05-03T05:26:16.227Z,99.90
2019-05-03T05:28:50.894Z,99.90
2019-05-03T05:31:20.690Z,99.90
2019-05-03T05:33:50.440Z,99.90
2019-05-03T05:36:20.266Z,99.90
2019-05-03T05:38:49.964Z,99.90
2019-05-03T05:41:19.653Z,99.90
2019-05-03T05:43:49.413Z,99.90
2019-05-03T05:46:20.974Z,99.90
2019-05-03T05:48:51.083Z,99.90
2019-05-03T05:51:20.910Z,99.90
2019-05-03T05:53:50.663Z,99.90
2019-05-03T05:56:30.689Z,99.90
2019-05-03T05:59:04.370Z,99.90
2019-05-03T06:01:45.715Z,99.90
2019-05-03T06:04:15.634Z,99.90
2019-05-03T06:07:20.351Z,99.90
2019-05-03T06:10:14.711Z,99.90
2019-05-03T06:12:50.013Z,99.90
2019-05-03T06:15:37.895Z,99.90
2019-05-03T06:18:14.638Z,99.90
2019-05-03T06:20:54.446Z,99.90
2019-05-03T06:23:37.958Z,99.90
2019-05-03T06:26:26.926Z,99.90
2019-05-03T06:28:57.345Z,99.90
2019-05-03T06:31:39.551Z,99.90
2019-05-03T06:34:09.249Z,99.90
2019-05-03T06:36:40.386Z,99.90
2019-05-03T06:39:10.269Z,99.90
2019-05-03T06:41:40.976Z,99.90
2019-05-03T06:44:10.706Z,99.90
2019-05-03T06:46:45.606Z,99.90
2019-05-03T06:49:16.042Z,99.90
2019-05-03T06:51:49.735Z,99.90
2019-05-03T06:54:20.761Z,99.90
2019-05-03T06:56:48.652Z,99.90
2019-05-03T06:59:36.663Z,99.90
2019-05-03T07:02:14.959Z,99.90
2019-05-03T07:04:46.700Z,99.90
2019-05-03T07:07:27.863Z,99.90
2019-05-03T07:10:05.155Z,99.90
2019-05-03T07:12:54.658Z,99.90
2019-05-03T07:15:25.176Z,99.90
2019-05-03T07:17:55.564Z,99.90
2019-05-03T07:20:25.790Z,99.90
2019-05-03T07:22:56.129Z,99.90
2019-05-03T07:25:25.996Z,99.90
2019-05-03T07:27:55.906Z,99.90
2019-05-03T07:30:26.762Z,99.90
2019-05-03T07:33:01.034Z,99.90
2019-05-03T07:35:30.823Z,99.90
2019-05-03T07:38:01.480Z,99.90
2019-05-03T07:40:31.249Z,99.90
2019-05-03T07:43:01.051Z,99.90
2019-05-03T07:45:30.823Z,99.90
2019-05-03T07:48:00.679Z,99.90
2019-05-03T07:50:33.008Z,99.90
2019-05-03T07:53:01.899Z,99.90
2019-05-03T07:55:50.666Z,99.90
2019-05-03T07:58:21.829Z,99.90
2019-05-03T08:01:05.465Z,99.90
2019-05-03T08:03:25.336Z,99.90
2019-05-03T08:05:55.413Z,99.90
2019-05-03T08:08:25.328Z,99.90
2019-05-03T08:10:55.169Z,99.90
2019-05-03T08:13:25.436Z,99.90
2019-05-03T08:15:55.867Z,99.90
2019-05-03T08:18:25.942Z,99.90
2019-05-03T08:20:55.833Z,99.90
2019-05-03T08:23:29.908Z,99.90
2019-05-03T08:25:57.021Z,99.90
2019-05-03T08:28:26.702Z,99.90
2019-05-03T08:31:15.619Z,99.90
2019-05-03T08:34:04.854Z,99.90
2019-05-03T08:36:54.820Z,99.90
2019-05-03T08:39:25.378Z,99.90
2019-05-03T08:42:00.627Z,99.90
2019-05-03T08:44:30.482Z,99.90
2019-05-03T08:47:00.457Z,99.90
2019-05-03T08:49:30.147Z,99.90
2019-05-03T08:51:59.952Z,99.90
2019-05-03T08:54:29.657Z,99.90
2019-05-03T08:56:59.395Z,99.90
2019-05-03T08:59:32.503Z,99.90
2019-05-03T09:02:03.490Z,99.90
2019-05-03T09:04:37.331Z,99.90
2019-05-03T09:07:05.463Z,99.90
2019-05-03T09:09:55.674Z,96.70
2019-05-03T09:12:25.380Z,97.50
2019-05-03T09:14:55.058Z,99.90
2019-05-03T09:17:24.885Z,99.90
2019-05-03T09:19:54.944Z,99.90
2019-05-03T09:22:25.626Z,99.90
2019-05-03T09:24:55.510Z,99.90
2019-05-03T09:27:25.249Z,99.90
2019-05-03T09:29:55.872Z,99.90
2019-05-03T09:32:25.742Z,99.90
2019-05-03T09:34:55.515Z,99.90
2019-05-03T09:37:25.214Z,99.90
2019-05-03T09:39:55.303Z,99.90
2019-05-03T09:42:25.192Z,99.90
2019-05-03T09:44:55.611Z,99.90
2019-05-03T09:47:25.526Z,99.90
2019-05-03T09:49:56.354Z,99.10
2019-05-03T09:52:26.130Z,98.40
2019-05-03T09:54:57.450Z,99.80
2019-05-03T09:57:27.266Z,99.90
2019-05-03T09:59:59.949Z,99.90
2019-05-03T10:02:28.482Z,99.90
2019-05-03T10:04:58.243Z,99.90
2019-05-03T10:07:27.929Z,99.90
2019-05-03T10:09:57.695Z,99.90
2019-05-03T10:12:27.528Z,99.90
2019-05-03T10:14:57.476Z,99.90
2019-05-03T10:17:50.953Z,99.90
2019-05-03T10:20:24.689Z,99.90
2019-05-03T10:22:55.767Z,99.90
2019-05-03T10:25:25.622Z,99.90
2019-05-03T10:27:55.448Z,99.90
2019-05-03T10:30:27.039Z,99.90
2019-05-03T10:33:15.509Z,99.90
2019-05-03T10:35:45.496Z,99.90
2019-05-03T10:38:16.212Z,99.90
2019-05-03T10:40:46.230Z,99.90
2019-05-03T10:43:16.052Z,99.90
2019-05-03T10:45:45.744Z,99.90
2019-05-03T10:48:15.738Z,99.90
2019-05-03T10:50:45.809Z,99.90
2019-05-03T10:53:22.530Z,99.90
2019-05-03T10:56:13.222Z,99.90
2019-05-03T10:58:42.732Z,99.90
2019-05-03T11:01:13.294Z,99.90
2019-05-03T11:03:45.109Z,99.90
2019-05-03T11:06:14.868Z,99.90
2019-05-03T11:08:45.136Z,99.90
2019-05-03T11:11:15.161Z,99.90
2019-05-03T11:13:44.958Z,99.90
2019-05-03T11:16:14.863Z,99.90
2019-05-03T11:18:45.569Z,99.90
2019-05-03T11:21:27.419Z,99.90
2019-05-03T11:23:46.762Z,99.90
2019-05-03T11:26:16.659Z,99.90
2019-05-03T11:28:46.494Z,99.90
2019-05-03T11:31:35.422Z,99.90
2019-05-03T11:34:06.910Z,99.90
2019-05-03T11:36:50.438Z,99.90
2019-05-03T11:39:20.183Z,99.90
2019-05-03T11:41:53.386Z,99.90
2019-05-03T11:44:38.695Z,99.90
2019-05-03T11:47:08.912Z,99.90
2019-05-03T11:49:38.684Z,99.90
2019-05-03T11:52:08.566Z,99.90
2019-05-03T11:54:38.399Z,99.90
2019-05-03T11:57:15.776Z,99.80
2019-05-03T11:59:45.558Z,99.90
2019-05-03T12:02:24.798Z,99.90
2019-05-03T12:04:55.224Z,99.90
2019-05-03T12:07:39.920Z,99.90
2019-05-03T12:10:16.957Z,99.90
2019-05-03T12:12:39.470Z,99.90
2019-05-03T12:15:09.314Z,99.90
2019-05-03T12:17:52.029Z,98.70
2019-05-03T12:20:14.637Z,98.40
2019-05-03T12:22:46.585Z,94.10
2019-05-03T12:25:16.991Z,95.80
2019-05-03T12:27:47.212Z,94.80
2019-05-03T12:30:17.550Z,96.00
2019-05-03T12:32:47.306Z,92.90
2019-05-03T12:35:17.005Z,94.90
2019-05-03T12:37:46.694Z,94.90
2019-05-03T12:40:17.435Z,95.00
2019-05-03T12:42:47.190Z,97.30
2019-05-03T12:45:19.602Z,94.80
2019-05-03T12:47:49.318Z,93.70
2019-05-03T12:50:19.261Z,94.70
2019-05-03T12:52:50.328Z,95.60
2019-05-03T12:55:20.610Z,94.40
2019-05-03T12:57:50.295Z,92.70
2019-05-03T13:00:38.166Z,94.10
2019-05-03T13:03:15.311Z,96.70
2019-05-03T13:05:45.139Z,97.60
2019-05-03T13:08:35.268Z,97.30
2019-05-03T13:11:05.648Z,97.00
2019-05-03T13:13:36.026Z,95.50
2019-05-03T13:16:06.426Z,95.70
2019-05-03T13:18:36.186Z,96.00
2019-05-03T13:21:06.338Z,95.70
2019-05-03T13:23:37.342Z,96.70
2019-05-03T13:26:07.187Z,92.80
2019-05-03T13:28:36.937Z,92.00
2019-05-03T13:31:06.775Z,90.90
2019-05-03T13:33:36.467Z,92.20
2019-05-03T13:36:06.279Z,92.80
2019-05-03T13:38:36.043Z,94.30
2019-05-03T13:41:06.444Z,94.70
2019-05-03T13:43:36.515Z,96.70
2019-05-03T13:46:06.330Z,99.00
2019-05-03T13:48:45.464Z,99.40
2019-05-03T13:51:07.519Z,99.90
2019-05-03T13:53:37.287Z,99.90
2019-05-03T13:56:07.058Z,99.90
2019-05-03T13:58:36.958Z,99.90
2019-05-03T14:01:07.267Z,99.90
2019-05-03T14:03:37.032Z,99.90
2019-05-03T14:06:08.351Z,99.90
2019-05-03T14:08:38.351Z,99.90
2019-05-03T14:11:08.031Z,99.90
2019-05-03T14:13:37.816Z,99.90
2019-05-03T14:16:07.655Z,99.90
2019-05-03T14:18:37.359Z,99.90
2019-05-03T14:21:24.627Z,99.90
2019-05-03T14:24:09.853Z,99.90
2019-05-03T14:26:40.930Z,99.90
2019-05-03T14:29:14.945Z,99.90
2019-05-03T14:31:45.444Z,99.90
2019-05-03T14:34:17.510Z,99.90
2019-05-03T14:36:46.878Z,99.90
2019-05-03T14:39:16.592Z,99.90
2019-05-03T14:41:46.883Z,99.90
2019-05-03T14:44:17.996Z,99.90
2019-05-03T14:46:48.066Z,99.90
2019-05-03T14:49:18.306Z,99.90
2019-05-03T14:51:48.078Z,99.90
2019-05-03T14:54:18.230Z,99.90
2019-05-03T14:57:10.165Z,99.90
2019-05-03T15:00:17.011Z,99.90
2019-05-03T15:03:06.818Z,99.90
2019-05-03T15:05:36.722Z,99.90
2019-05-03T15:08:06.699Z,99.90
2019-05-03T15:10:42.728Z,99.90
2019-05-03T15:13:12.548Z,99.90
2019-05-03T15:15:42.382Z,99.90
2019-05-03T15:18:12.155Z,99.90
2019-05-03T15:20:41.834Z,99.90
2019-05-03T15:23:11.543Z,99.90
2019-05-03T15:25:41.250Z,99.90
2019-05-03T15:28:11.009Z,99.90
2019-05-03T15:30:40.791Z,99.90
2019-05-03T15:33:10.462Z,99.90
2019-05-03T15:35:40.293Z,99.90
2019-05-03T15:38:10.057Z,99.90
2019-05-03T15:40:39.746Z,99.90
2019-05-03T15:43:34.823Z,99.90
2019-05-03T15:46:14.693Z,99.90
2019-05-03T15:48:47.323Z,99.90
2019-05-03T15:51:17.084Z,99.90
2019-05-03T15:53:46.864Z,99.90
2019-05-03T15:56:16.546Z,99.90
2019-05-03T15:58:46.964Z,99.90
2019-05-03T16:01:16.755Z,99.90
2019-05-03T16:03:46.519Z,99.90
2019-05-03T16:06:16.275Z,99.90
2019-05-03T16:08:46.142Z,99.90
2019-05-03T16:11:15.901Z,99.90
2019-05-03T16:13:45.826Z,99.90
2019-05-03T16:16:15.520Z,99.90
2019-05-03T16:18:45.217Z,99.90
2019-05-03T16:21:15.035Z,99.90
2019-05-03T16:23:46.751Z,99.90
2019-05-03T16:26:16.527Z,99.90
2019-05-03T16:28:51.214Z,99.90
2019-05-03T16:31:22.242Z,99.90
2019-05-03T16:33:51.934Z,99.90
2019-05-03T16:36:21.706Z,99.90
2019-05-03T16:38:51.495Z,99.90
2019-05-03T16:41:21.283Z,99.90
2019-05-03T16:43:50.986Z,99.90
2019-05-03T16:46:21.575Z,99.90
2019-05-03T16:48:51.287Z,99.90
2019-05-03T16:51:20.975Z,99.90
2019-05-03T16:53:50.831Z,99.90
2019-05-03T16:56:20.797Z,99.90
2019-05-03T16:58:50.714Z,99.90
2019-05-03T17:01:20.567Z,99.90
2019-05-03T17:03:54.987Z,99.90
2019-05-03T17:06:34.703Z,99.90
2019-05-03T17:09:35.327Z,99.90
2019-05-03T17:12:07.500Z,99.90
2019-05-03T17:14:37.262Z,99.90
2019-05-03T17:17:07.230Z,99.90
2019-05-03T17:19:37.615Z,99.90
2019-05-03T17:22:07.507Z,99.90
2019-05-03T17:24:37.375Z,99.90
2019-05-03T17:27:07.211Z,99.90
2019-05-03T17:29:36.965Z,99.90
2019-05-03T17:32:06.802Z,99.90
2019-05-03T17:34:36.575Z,99.90
2019-05-03T17:37:06.270Z,99.90
2019-05-03T17:39:54.751Z,99.90
2019-05-03T17:42:45.231Z,99.90
2019-05-03T17:45:17.591Z,99.90
2019-05-03T17:47:47.370Z,99.90
2019-05-03T17:50:17.162Z,99.90
2019-05-03T17:53:09.004Z,99.90
2019-05-03T17:55:55.150Z,99.90
2019-05-03T17:58:44.385Z,99.90
2019-05-03T18:01:39.511Z,99.90
2019-05-03T18:04:25.195Z,99.90
2019-05-03T18:07:05.440Z,99.90
2019-05-03T18:09:36.654Z,99.90
2019-05-03T18:12:06.402Z,99.90
2019-05-03T18:14:36.158Z,99.90
2019-05-03T18:17:05.973Z,99.90
2019-05-03T18:19:35.680Z,99.90
2019-05-03T18:22:05.535Z,99.90
2019-05-03T18:24:35.388Z,99.90
2019-05-03T18:27:06.209Z,99.90
2019-05-03T18:29:35.941Z,99.90
2019-05-03T18:32:05.703Z,99.90
2019-05-03T18:34:35.667Z,99.90
2019-05-03T18:37:05.571Z,99.90
2019-05-03T18:39:35.949Z,99.90
2019-05-03T18:42:07.543Z,99.90
2019-05-03T18:44:45.206Z,99.90
2019-05-03T18:47:19.014Z,99.90
2019-05-03T18:49:48.834Z,99.90
2019-05-03T18:52:18.510Z,99.90
2019-05-03T18:54:48.294Z,99.90
2019-05-03T18:57:18.002Z,99.90
2019-05-03T18:59:47.686Z,99.90
2019-05-03T19:02:17.611Z,99.90
2019-05-03T19:04:49.538Z,99.90
2019-05-03T19:07:37.494Z,99.90
2019-05-03T19:10:26.276Z,99.90
2019-05-03T19:13:00.162Z,99.90
2019-05-03T19:15:31.811Z,99.90
2019-05-03T19:18:05.198Z,99.90
2019-05-03T19:20:35.323Z,99.90
2019-05-03T19:23:06.202Z,99.90
2019-05-03T19:25:45.917Z,99.90
2019-05-03T19:28:08.120Z,99.90
2019-05-03T19:30:39.769Z,99.90
2019-05-03T19:33:09.455Z,99.90
2019-05-03T19:35:39.133Z,99.90
2019-05-03T19:38:20.430Z,99.90
2019-05-03T19:40:50.103Z,99.90
2019-05-03T19:43:19.854Z,99.90
2019-05-03T19:45:49.610Z,99.90
2019-05-03T19:48:19.288Z,99.90
2019-05-03T19:50:48.974Z,99.90
2019-05-03T19:53:40.446Z,99.90
2019-05-03T19:56:10.132Z,99.90
2019-05-03T19:58:39.818Z,99.90
2019-05-03T20:01:34.749Z,99.90
2019-05-03T20:04:33.119Z,99.90
2019-05-03T20:07:16.698Z,99.90
2019-05-03T20:09:47.807Z,99.90
2019-05-03T20:12:17.570Z,99.90
2019-05-03T20:14:47.271Z,99.90
2019-05-03T20:17:17.030Z,99.90
2019-05-03T20:19:46.714Z,99.90
2019-05-03T20:22:16.518Z,99.90
2019-05-03T20:24:46.378Z,99.90
2019-05-03T20:27:16.125Z,99.90
2019-05-03T20:29:46.271Z,99.90
2019-05-03T20:32:16.267Z,99.90
2019-05-03T20:34:45.966Z,99.90
2019-05-03T20:37:15.712Z,99.90
2019-05-03T20:39:45.402Z,99.90
2019-05-03T20:42:35.674Z,99.90
2019-05-03T20:45:08.795Z,99.90
2019-05-03T20:47:42.965Z,99.90
2019-05-03T20:50:16.095Z,99.90
2019-05-03T20:52:46.262Z,99.90
2019-05-03T20:55:16.079Z,99.90
2019-05-03T20:57:45.833Z,99.90
2019-05-03T21:00:20.178Z,99.90
2019-05-03T21:02:53.834Z,99.90
2019-05-03T21:05:29.548Z,99.90
2019-05-03T21:07:54.867Z,99.90
2019-05-03T21:10:24.339Z,99.90
2019-05-03T21:12:54.501Z,99.90
2019-05-03T21:15:50.850Z,99.90
2019-05-03T21:18:48.482Z,99.90
2019-05-03T21:21:24.873Z,99.90
2019-05-03T21:23:59.050Z,99.90
2019-05-03T21:26:28.809Z,99.90
2019-05-03T21:28:58.558Z,99.90
2019-05-03T21:31:29.530Z,99.90
2019-05-03T21:33:59.281Z,99.90
2019-05-03T21:36:29.158Z,99.90
2019-05-03T21:38:59.821Z,99.90
2019-05-03T21:41:29.618Z,99.90
2019-05-03T21:43:59.306Z,99.90
2019-05-03T21:46:40.745Z,99.90
2019-05-03T21:49:15.981Z,99.90
2019-05-03T21:51:45.673Z,99.90
2019-05-03T21:54:15.461Z,99.90
2019-05-03T21:56:45.178Z,99.90
2019-05-03T21:59:14.970Z,99.90
2019-05-03T22:01:47.438Z,99.90
2019-05-03T22:04:17.310Z,99.90
2019-05-03T22:06:47.002Z,99.90
2019-05-03T22:09:16.789Z,99.90
2019-05-03T22:11:46.551Z,99.90
2019-05-03T22:14:28.234Z,99.90
2019-05-03T22:17:15.975Z,99.90
2019-05-03T22:19:47.342Z,99.90
2019-05-03T22:22:36.522Z,99.90
2019-05-03T22:25:07.102Z,99.90
2019-05-03T22:27:40.748Z,99.90
2019-05-03T22:30:11.489Z,99.90
2019-05-03T22:32:41.176Z,99.90
2019-05-03T22:35:11.151Z,99.90
2019-05-03T22:37:40.882Z,99.90
2019-05-03T22:40:11.141Z,99.90
2019-05-03T22:42:40.814Z,99.90
2019-05-03T22:45:11.532Z,99.90
2019-05-03T22:47:41.223Z,99.90
2019-05-03T22:50:11.466Z,99.90
2019-05-03T22:52:41.239Z,99.90
2019-05-03T22:55:11.031Z,99.90
2019-05-03T22:57:40.701Z,99.90
2019-05-03T23:00:10.470Z,99.90
2019-05-03T23:02:41.798Z,99.90
2019-05-03T23:05:11.639Z,99.90
2019-05-03T23:07:41.422Z,99.90
2019-05-03T23:10:11.314Z,99.90
2019-05-03T23:12:41.086Z,99.90
2019-05-03T23:15:12.638Z,99.90
2019-05-03T23:17:42.440Z,99.90
2019-05-03T23:20:21.561Z,99.90
2019-05-03T23:22:51.354Z,99.90
2019-05-03T23:25:21.038Z,99.90
2019-05-03T23:27:50.847Z,99.90
2019-05-03T23:30:20.592Z,99.90
2019-05-03T23:32:50.301Z,99.90
2019-05-03T23:35:20.001Z,99.90
2019-05-03T23:37:49.743Z,99.90
2019-05-03T23:40:19.439Z,99.90
2019-05-03T23:42:49.194Z,99.90
2019-05-03T23:45:18.942Z,99.90
2019-05-03T23:47:48.857Z,99.90
2019-05-03T23:50:20.610Z,99.90
2019-05-03T23:52:51.290Z,99.90
2019-05-03T23:55:49.371Z,99.90
2019-05-03T23:58:19.157Z,99.90
